Time;durP1;ratioP1;P1;durP2;ratioP2;P2;SDS_P1;SDS_P2;PMS_P1;PMS_P2;Temp;Humidity;BMP_temperature;BMP_pressure;BME280_temperature;BME280_humidity;BME280_pressure;Samples;Min_cycle;Max_cycle;Signal;HPM_P1;HPM_P2
2021/07/14 00:01:48;;;;;;;0.40;0.40;;;;;;;;;;4996964;28;20070;-72
2021/07/14 00:04:14;;;;;;;0.38;0.38;;;;;;;;;;4998319;28;20049;-72
2021/07/14 00:06:39;;;;;;;0.38;0.38;;;;;;;;;;4985086;28;20077;-73
2021/07/14 00:09:06;;;;;;;0.68;0.40;;;;;;;;;;4997458;28;20038;-73
2021/07/14 00:11:37;;;;;;;0.30;0.30;;;;;;;;;;4999977;28;20500;-74
2021/07/14 00:14:26;;;;;;;0.70;0.50;;;;;;;;;;5004542;28;20087;-74
2021/07/14 00:22:21;;;;;;;0.40;0.40;;;;;;;;;;5001367;28;20026;-73
2021/07/14 00:24:47;;;;;;;0.40;0.40;;;;;;;;;;4996428;28;20428;-73
2021/07/14 00:27:14;;;;;;;0.30;0.30;;;;;;;;;;5004361;28;20840;-73
2021/07/14 00:29:49;;;;;;;0.30;0.30;;;;;;;;;;5003824;28;20057;-74
2021/07/14 00:32:14;;;;;;;0.40;0.40;;;;;;;;;;4989556;28;20025;-74
2021/07/14 00:34:40;;;;;;;0.30;0.30;;;;;;;;;;5013680;28;20463;-73
2021/07/14 00:37:07;;;;;;;0.35;0.35;;;;;;;;;;5006865;28;20103;-73
2021/07/14 00:39:33;;;;;;;0.30;0.30;;;;;;;;;;4998240;28;20026;-72
2021/07/14 00:41:58;;;;;;;0.30;0.30;;;;;;;;;;5006857;28;20056;-71
2021/07/14 00:44:24;;;;;;;0.30;0.30;;;;;;;;;;5013138;28;20038;-73
2021/07/14 00:46:50;;;;;;;0.35;0.35;;;;;;;;;;4990840;28;20369;-72
2021/07/14 00:49:16;;;;;;;0.40;0.40;;;;;;;;;;4997348;28;20034;-73
2021/07/14 00:51:42;;;;;;;0.40;0.40;;;;;;;;;;4984628;28;20130;-72
2021/07/14 00:54:08;;;;;;;0.30;0.30;;;;;;;;;;4999632;28;20030;-73
2021/07/14 00:56:34;;;;;;;0.30;0.30;;;;;;;;;;5001415;28;20034;-73
2021/07/14 00:59:01;;;;;;;0.50;0.50;;;;;;;;;;4999063;28;20128;-76
2021/07/14 01:01:27;;;;;;;;;;;;;;;;;;5004373;28;20101;-73
2021/07/14 01:04:08;;;;;;;0.30;0.30;;;;;;;;;;4995305;28;19996;-72
2021/07/14 01:06:39;;;;;;;0.40;0.40;;;;;;;;;;5000763;28;20049;-74
2021/07/14 01:09:09;;;;;;;0.35;0.35;;;;;;;;;;5005007;28;20049;-73
2021/07/14 01:11:34;;;;;;;;;;;;;;;;;;4999399;28;20034;-73
2021/07/14 01:14:21;;;;;;;0.40;0.40;;;;;;;;;;5000812;28;19914;-73
2021/07/14 01:16:47;;;;;;;0.30;0.30;;;;;;;;;;4994601;28;20073;-72
2021/07/14 01:19:12;;;;;;;0.35;0.35;;;;;;;;;;4999694;28;20545;-72
2021/07/14 01:21:44;;;;;;;0.45;0.40;;;;;;;;;;5002044;28;20109;-72
2021/07/14 01:24:16;;;;;;;0.40;0.40;;;;;;;;;;4996337;28;20034;-72
2021/07/14 01:26:42;;;;;;;0.40;0.40;;;;;;;;;;5008333;28;20084;-72
2021/07/14 01:29:11;;;;;;;0.40;0.40;;;;;;;;;;4999251;28;20017;-73
2021/07/14 01:31:37;;;;;;;0.50;0.50;;;;;;;;;;4997962;28;20046;-72
2021/07/14 01:34:05;;;;;;;0.35;0.35;;;;;;;;;;4998896;28;20096;-72
2021/07/14 01:36:31;;;;;;;0.40;0.40;;;;;;;;;;5005388;28;20050;-72
2021/07/14 01:38:57;;;;;;;0.40;0.40;;;;;;;;;;4986251;28;20041;-73
2021/07/14 01:41:25;;;;;;;0.45;0.45;;;;;;;;;;4999297;28;20027;-72
2021/07/14 01:43:53;;;;;;;0.40;0.40;;;;;;;;;;4979629;28;20080;-73
2021/07/14 01:46:19;;;;;;;0.40;0.40;;;;;;;;;;4995946;28;20058;-74
2021/07/14 01:48:46;;;;;;;0.40;0.40;;;;;;;;;;4995438;28;20057;-74
2021/07/14 01:51:12;;;;;;;0.50;0.50;;;;;;;;;;5009638;28;20519;-73
2021/07/14 01:53:38;;;;;;;0.40;0.40;;;;;;;;;;5004283;28;20503;-74
2021/07/14 01:56:08;;;;;;;0.40;0.40;;;;;;;;;;5010028;28;20036;-74
2021/07/14 01:58:36;;;;;;;0.32;0.32;;;;;;;;;;4986848;28;20088;-73
2021/07/14 02:01:02;;;;;;;0.40;0.40;;;;;;;;;;5001769;28;20025;-74
2021/07/14 02:03:41;;;;;;;0.35;0.35;;;;;;;;;;4997605;28;20034;-74
2021/07/14 02:06:08;;;;;;;0.38;0.38;;;;;;;;;;4995963;28;20543;-72
2021/07/14 02:08:38;;;;;;;0.40;0.40;;;;;;;;;;4999173;28;20022;-73
2021/07/14 02:11:04;;;;;;;0.50;0.50;;;;;;;;;;5008367;28;20049;-73
2021/07/14 02:13:32;;;;;;;0.40;0.40;;;;;;;;;;4997906;28;20042;-72
2021/07/14 02:16:00;;;;;;;0.30;0.30;;;;;;;;;;5000892;28;20404;-73
2021/07/14 02:18:29;;;;;;;0.50;0.50;;;;;;;;;;5006696;28;20065;-72
2021/07/14 02:20:57;;;;;;;0.40;0.40;;;;;;;;;;4990369;28;20107;-73
2021/07/14 02:23:24;;;;;;;0.40;0.40;;;;;;;;;;4998227;28;20027;-72
2021/07/14 02:25:50;;;;;;;0.40;0.40;;;;;;;;;;4991605;28;20053;-73
2021/07/14 02:28:18;;;;;;;0.40;0.40;;;;;;;;;;5000740;28;20098;-74
2021/07/14 02:30:45;;;;;;;0.40;0.40;;;;;;;;;;4996920;28;20042;-73
2021/07/14 02:33:11;;;;;;;0.47;0.47;;;;;;;;;;5002829;28;20038;-73
2021/07/14 02:35:38;;;;;;;0.47;0.47;;;;;;;;;;4992322;28;20025;-73
2021/07/14 02:38:06;;;;;;;0.40;0.40;;;;;;;;;;5000411;28;20037;-73
2021/07/14 02:40:33;;;;;;;0.40;0.40;;;;;;;;;;5007655;28;20034;-73
2021/07/14 02:42:59;;;;;;;0.40;0.40;;;;;;;;;;5001061;28;20473;-73
2021/07/14 02:45:27;;;;;;;0.30;0.30;;;;;;;;;;5000771;28;20034;-74
2021/07/14 02:47:52;;;;;;;;;;;;;;;;;;4997218;28;20038;-74
2021/07/14 02:50:22;;;;;;;0.40;0.40;;;;;;;;;;4983340;28;19917;-73
2021/07/14 02:52:49;;;;;;;0.40;0.40;;;;;;;;;;5006668;28;20689;-73
2021/07/14 02:55:14;;;;;;;;;;;;;;;;;;5007310;28;20113;-74
2021/07/14 02:57:40;;;;;;;0.50;0.50;;;;;;;;;;4989523;28;20004;-74
2021/07/14 03:00:06;;;;;;;0.50;0.50;;;;;;;;;;5007027;28;20022;-74
2021/07/14 03:02:33;;;;;;;0.47;0.47;;;;;;;;;;5000021;28;20026;-74
2021/07/14 03:04:58;;;;;;;0.40;0.40;;;;;;;;;;5004987;28;20030;-73
2021/07/14 03:07:26;;;;;;;0.40;0.40;;;;;;;;;;5000069;28;20037;-74
2021/07/14 03:09:54;;;;;;;0.40;0.40;;;;;;;;;;5007733;28;20029;-74
2021/07/14 03:12:20;;;;;;;0.40;0.40;;;;;;;;;;5000570;28;20014;-72
2021/07/14 03:14:47;;;;;;;0.37;0.37;;;;;;;;;;4997726;28;20491;-72
2021/07/14 03:17:14;;;;;;;0.40;0.40;;;;;;;;;;4984395;28;20028;-72
2021/07/14 03:19:39;;;;;;;0.50;0.50;;;;;;;;;;4998220;28;20529;-74
2021/07/14 03:22:05;;;;;;;0.45;0.45;;;;;;;;;;5002276;28;20044;-74
2021/07/14 03:24:31;;;;;;;0.50;0.50;;;;;;;;;;5013682;28;20049;-73
2021/07/14 03:26:57;;;;;;;0.50;0.50;;;;;;;;;;5003515;28;20057;-72
2021/07/14 03:29:23;;;;;;;0.50;0.50;;;;;;;;;;4999712;28;20468;-72
2021/07/14 03:31:50;;;;;;;0.38;0.38;;;;;;;;;;4996213;28;20471;-74
2021/07/14 03:34:15;;;;;;;0.67;0.60;;;;;;;;;;5002880;28;20033;-74
2021/07/14 03:36:41;;;;;;;0.40;0.40;;;;;;;;;;4997294;28;20042;-74
2021/07/14 03:39:06;;;;;;;0.40;0.40;;;;;;;;;;4996563;28;20030;-74
2021/07/14 03:41:32;;;;;;;0.50;0.50;;;;;;;;;;5005470;28;20416;-73
2021/07/14 03:43:57;;;;;;;0.40;0.40;;;;;;;;;;5005340;28;20092;-73
2021/07/14 03:46:23;;;;;;;0.43;0.43;;;;;;;;;;5002659;28;20018;-73
2021/07/14 03:48:50;;;;;;;0.40;0.40;;;;;;;;;;4998394;28;20062;-74
2021/07/14 03:51:17;;;;;;;0.40;0.40;;;;;;;;;;5005955;28;20022;-74
2021/07/14 03:53:45;;;;;;;0.45;0.45;;;;;;;;;;4980003;28;20050;-73
2021/07/14 03:56:11;;;;;;;0.45;0.45;;;;;;;;;;5006399;28;20041;-73
2021/07/14 03:58:38;;;;;;;0.50;0.50;;;;;;;;;;5006631;28;20030;-74
2021/07/14 04:01:03;;;;;;;0.40;0.40;;;;;;;;;;4990395;28;20407;-74
2021/07/14 04:03:29;;;;;;;0.40;0.40;;;;;;;;;;4999439;28;20522;-74
2021/07/14 04:05:58;;;;;;;0.40;0.40;;;;;;;;;;5000462;28;20057;-74
2021/07/14 04:08:25;;;;;;;0.40;0.40;;;;;;;;;;4999381;28;20044;-72
2021/07/14 04:10:51;;;;;;;;;;;;;;;;;;5000710;28;20030;-74
2021/07/14 04:13:19;;;;;;;0.40;0.40;;;;;;;;;;5004846;28;19909;-74
2021/07/14 04:15:44;;;;;;;0.60;0.60;;;;;;;;;;4998107;28;20036;-74
2021/07/14 04:18:12;;;;;;;0.40;0.40;;;;;;;;;;5003988;28;20124;-74
2021/07/14 04:20:37;;;;;;;0.50;0.50;;;;;;;;;;4999181;28;20062;-74
2021/07/14 04:23:05;;;;;;;0.40;0.40;;;;;;;;;;5004340;28;20025;-74
2021/07/14 04:25:33;;;;;;;0.40;0.40;;;;;;;;;;4999037;28;20021;-74
2021/07/14 04:27:58;;;;;;;0.60;0.60;;;;;;;;;;4998287;28;20113;-73
2021/07/14 04:30:24;;;;;;;0.40;0.40;;;;;;;;;;5007125;28;20117;-75
2021/07/14 04:32:49;;;;;;;0.40;0.40;;;;;;;;;;4999257;28;20124;-74
2021/07/14 04:35:14;;;;;;;0.50;0.50;;;;;;;;;;5005113;28;20030;-73
2021/07/14 04:37:43;;;;;;;0.40;0.40;;;;;;;;;;4996887;28;20030;-74
2021/07/14 04:40:09;;;;;;;0.40;0.40;;;;;;;;;;5000984;28;20086;-74
2021/07/14 04:42:35;;;;;;;0.40;0.40;;;;;;;;;;5001678;28;20093;-74
2021/07/14 04:45:00;;;;;;;0.50;0.50;;;;;;;;;;5000171;28;20092;-74
2021/07/14 04:47:25;;;;;;;0.30;0.30;;;;;;;;;;4980715;28;20046;-74
2021/07/14 04:49:51;;;;;;;0.40;0.40;;;;;;;;;;5002163;28;20483;-74
2021/07/14 04:52:16;;;;;;;0.40;0.40;;;;;;;;;;5005551;28;20034;-74
2021/07/14 04:54:42;;;;;;;0.50;0.50;;;;;;;;;;5000526;28;20038;-74
2021/07/14 04:57:07;;;;;;;0.30;0.30;;;;;;;;;;5008718;28;20103;-74
2021/07/14 04:59:35;;;;;;;0.32;0.32;;;;;;;;;;5006370;28;20502;-73
2021/07/14 05:02:04;;;;;;;0.40;0.40;;;;;;;;;;5002773;28;20045;-74
2021/07/14 05:04:29;;;;;;;0.47;0.47;;;;;;;;;;5009512;28;20041;-74
2021/07/14 05:06:55;;;;;;;0.30;0.30;;;;;;;;;;5036466;28;20030;-74
2021/07/14 05:09:20;;;;;;;0.30;0.30;;;;;;;;;;5008667;28;20027;-74
2021/07/14 05:11:48;;;;;;;0.45;0.45;;;;;;;;;;5007050;28;20080;-73
2021/07/14 05:14:13;;;;;;;0.40;0.40;;;;;;;;;;5004785;28;20068;-73
2021/07/14 05:16:39;;;;;;;0.40;0.40;;;;;;;;;;5003470;28;20026;-73
2021/07/14 05:19:05;;;;;;;0.45;0.45;;;;;;;;;;5001741;28;20044;-75
2021/07/14 05:21:31;;;;;;;0.33;0.33;;;;;;;;;;5005729;28;20034;-74
2021/07/14 05:23:56;;;;;;;0.40;0.40;;;;;;;;;;5007698;28;20697;-74
2021/07/14 05:26:26;;;;;;;0.32;0.32;;;;;;;;;;5004878;28;20030;-74
2021/07/14 05:28:52;;;;;;;0.35;0.35;;;;;;;;;;5004436;28;20085;-71
2021/07/14 05:31:19;;;;;;;0.40;0.40;;;;;;;;;;5001736;28;20030;-73
2021/07/14 05:33:45;;;;;;;0.47;0.47;;;;;;;;;;5004192;28;20033;-73
2021/07/14 05:36:13;;;;;;;0.30;0.30;;;;;;;;;;5006261;28;20030;-73
2021/07/14 05:38:39;;;;;;;0.40;0.40;;;;;;;;;;5011554;28;20070;-73
2021/07/14 05:41:08;;;;;;;0.22;0.22;;;;;;;;;;5018763;28;20022;-72
2021/07/14 05:43:34;;;;;;;0.30;0.30;;;;;;;;;;5005188;28;20041;-72
2021/07/14 05:45:59;;;;;;;0.30;0.30;;;;;;;;;;5004795;28;20098;-73
2021/07/14 05:48:25;;;;;;;0.30;0.30;;;;;;;;;;5009330;28;20034;-74
2021/07/14 05:50:50;;;;;;;0.30;0.30;;;;;;;;;;4998749;28;20108;-73
2021/07/14 05:53:16;;;;;;;0.30;0.30;;;;;;;;;;5005485;28;20038;-72
2021/07/14 05:55:41;;;;;;;0.40;0.40;;;;;;;;;;5003985;28;20022;-74
2021/07/14 05:58:08;;;;;;;0.30;0.30;;;;;;;;;;5016038;28;20625;-74
2021/07/14 06:00:33;;;;;;;0.30;0.30;;;;;;;;;;5013158;28;20055;-74
2021/07/14 06:02:58;;;;;;;0.30;0.30;;;;;;;;;;4991231;28;20120;-73
2021/07/14 06:05:26;;;;;;;0.30;0.30;;;;;;;;;;5003978;28;20030;-74
2021/07/14 06:07:51;;;;;;;0.30;0.30;;;;;;;;;;5000634;28;20031;-73
2021/07/14 06:10:17;;;;;;;0.30;0.30;;;;;;;;;;5009231;28;20411;-74
2021/07/14 06:12:44;;;;;;;0.25;0.25;;;;;;;;;;5002393;28;20022;-74
2021/07/14 06:15:10;;;;;;;0.20;0.20;;;;;;;;;;5000423;28;20029;-74
2021/07/14 06:17:35;;;;;;;0.30;0.30;;;;;;;;;;5005956;28;20041;-73
2021/07/14 06:20:02;;;;;;;0.30;0.30;;;;;;;;;;4989873;28;20036;-73
2021/07/14 06:22:28;;;;;;;;;;;;;;;;;;5008522;28;20022;-74
2021/07/14 06:24:53;;;;;;;0.40;0.40;;;;;;;;;;5011720;28;19913;-74
2021/07/14 06:27:19;;;;;;;0.40;0.40;;;;;;;;;;5010031;28;20080;-74
2021/07/14 06:29:44;;;;;;;0.30;0.30;;;;;;;;;;4997540;28;20137;-74
2021/07/14 06:32:12;;;;;;;0.30;0.30;;;;;;;;;;5006295;28;20025;-74
2021/07/14 06:34:37;;;;;;;0.40;0.40;;;;;;;;;;4995107;28;20034;-74
2021/07/14 06:37:02;;;;;;;0.30;0.30;;;;;;;;;;5010761;28;20049;-73
2021/07/14 06:39:28;;;;;;;0.40;0.40;;;;;;;;;;5022865;28;20038;-72
2021/07/14 06:41:55;;;;;;;0.40;0.40;;;;;;;;;;5027825;28;20049;-71
2021/07/14 06:44:20;;;;;;;0.30;0.30;;;;;;;;;;5027019;28;20034;-73
2021/07/14 06:46:45;;;;;;;0.40;0.40;;;;;;;;;;5023918;28;20030;-73
2021/07/14 06:49:11;;;;;;;0.30;0.30;;;;;;;;;;5009324;28;20025;-72
2021/07/14 06:51:36;;;;;;;0.22;0.22;;;;;;;;;;5018232;28;20124;-71
2021/07/14 06:54:02;;;;;;;0.30;0.30;;;;;;;;;;5022277;28;20034;-73
2021/07/14 06:56:29;;;;;;;0.38;0.38;;;;;;;;;;5008961;28;20098;-73
2021/07/14 06:58:57;;;;;;;0.30;0.30;;;;;;;;;;5005601;28;20034;-73
2021/07/14 07:01:23;;;;;;;0.40;0.40;;;;;;;;;;5010816;28;20128;-74
2021/07/14 07:03:48;;;;;;;0.30;0.30;;;;;;;;;;4996918;28;20381;-74
2021/07/14 07:06:13;;;;;;;0.30;0.30;;;;;;;;;;5003493;28;20034;-74
2021/07/14 07:08:39;;;;;;;0.40;0.40;;;;;;;;;;5001127;28;20488;-74
2021/07/14 07:11:04;;;;;;;0.30;0.30;;;;;;;;;;5012114;28;20034;-74
2021/07/14 07:13:30;;;;;;;0.30;0.30;;;;;;;;;;5000484;28;20054;-73
2021/07/14 07:15:55;;;;;;;0.30;0.30;;;;;;;;;;4995856;28;20489;-74
2021/07/14 07:18:21;;;;;;;0.40;0.40;;;;;;;;;;5000493;28;20809;-74
2021/07/14 07:20:47;;;;;;;0.30;0.30;;;;;;;;;;4996970;28;20060;-74
2021/07/14 07:23:12;;;;;;;0.30;0.30;;;;;;;;;;5002942;28;20037;-73
2021/07/14 07:25:38;;;;;;;0.38;0.30;;;;;;;;;;5007102;28;20038;-73
2021/07/14 07:28:04;;;;;;;0.30;0.30;;;;;;;;;;4993143;28;20053;-72
2021/07/14 07:30:30;;;;;;;0.35;0.35;;;;;;;;;;5004655;28;20456;-73
2021/07/14 07:32:55;;;;;;;0.32;0.32;;;;;;;;;;4985944;28;20412;-72
2021/07/14 07:35:21;;;;;;;0.30;0.30;;;;;;;;;;4995519;28;20111;-73
2021/07/14 07:37:46;;;;;;;0.20;0.20;;;;;;;;;;5003977;28;20036;-73
2021/07/14 07:40:12;;;;;;;0.30;0.30;;;;;;;;;;4974108;28;20044;-73
2021/07/14 07:42:37;;;;;;;0.20;0.20;;;;;;;;;;4957658;28;20045;-72
2021/07/14 07:45:03;;;;;;;0.30;0.30;;;;;;;;;;4985324;28;20041;-73
2021/07/14 07:47:29;;;;;;;0.30;0.30;;;;;;;;;;4993086;28;20412;-71
2021/07/14 07:49:54;;;;;;;0.20;0.20;;;;;;;;;;4991477;28;20472;-72
2021/07/14 07:52:22;;;;;;;0.40;0.40;;;;;;;;;;4998407;28;20089;-73
2021/07/14 07:54:48;;;;;;;0.30;0.30;;;;;;;;;;5000655;28;20027;-72
2021/07/14 07:57:16;;;;;;;0.28;0.28;;;;;;;;;;4995855;28;20022;-72
2021/07/14 07:59:41;;;;;;;0.30;0.30;;;;;;;;;;4997495;28;20080;-72
2021/07/14 08:02:06;;;;;;;0.40;0.40;;;;;;;;;;5001070;28;20041;-73
2021/07/14 08:04:32;;;;;;;0.30;0.30;;;;;;;;;;4992713;28;20093;-73
2021/07/14 08:06:57;;;;;;;0.38;0.38;;;;;;;;;;4999815;28;20033;-73
2021/07/14 08:09:22;;;;;;;0.30;0.30;;;;;;;;;;4999666;28;20475;-72
2021/07/14 08:11:48;;;;;;;0.25;0.25;;;;;;;;;;4998004;28;20134;-73
2021/07/14 08:14:16;;;;;;;0.32;0.32;;;;;;;;;;5001482;28;20041;-73
2021/07/14 08:16:43;;;;;;;0.30;0.30;;;;;;;;;;4997548;28;20022;-73
2021/07/14 08:19:09;;;;;;;0.30;0.30;;;;;;;;;;5000187;28;20029;-72
2021/07/14 08:21:35;;;;;;;0.30;0.30;;;;;;;;;;4970694;28;20581;-73
2021/07/14 08:24:00;;;;;;;0.30;0.30;;;;;;;;;;4983106;28;20986;-73
2021/07/14 08:26:25;;;;;;;0.30;0.30;;;;;;;;;;4989107;28;20131;-74
2021/07/14 08:28:51;;;;;;;0.32;0.32;;;;;;;;;;5004740;28;20034;-75
2021/07/14 08:31:16;;;;;;;0.30;0.30;;;;;;;;;;4995736;28;20499;-74
2021/07/14 08:33:42;;;;;;;0.30;0.30;;;;;;;;;;5004113;28;20101;-75
2021/07/14 08:36:07;;;;;;;0.30;0.30;;;;;;;;;;4983583;28;20043;-73
2021/07/14 08:38:33;;;;;;;0.30;0.30;;;;;;;;;;4991392;28;20572;-73
2021/07/14 08:40:58;;;;;;;0.30;0.30;;;;;;;;;;5004487;28;20125;-74
2021/07/14 08:43:27;;;;;;;0.40;0.40;;;;;;;;;;4993961;28;20080;-72
2021/07/14 08:45:52;;;;;;;0.40;0.40;;;;;;;;;;4997263;28;20033;-73
2021/07/14 08:48:18;;;;;;;0.30;0.30;;;;;;;;;;4992403;28;20030;-72
2021/07/14 08:50:44;;;;;;;0.30;0.30;;;;;;;;;;4970424;28;20590;-71
2021/07/14 08:53:14;;;;;;;0.40;0.40;;;;;;;;;;4967386;28;20088;-75
2021/07/14 08:55:41;;;;;;;0.20;0.20;;;;;;;;;;4975877;28;20038;-72
2021/07/14 08:58:06;;;;;;;0.45;0.45;;;;;;;;;;4969358;28;20049;-73
2021/07/14 09:00:32;;;;;;;0.30;0.30;;;;;;;;;;4973101;28;20026;-72
2021/07/14 09:03:02;;;;;;;0.40;0.40;;;;;;;;;;4971853;28;20164;-73
2021/07/14 09:05:27;;;;;;;0.30;0.30;;;;;;;;;;4992286;28;20050;-74
2021/07/14 09:07:52;;;;;;;0.28;0.28;;;;;;;;;;5006927;28;20124;-73
2021/07/14 09:10:18;;;;;;;0.20;0.20;;;;;;;;;;4996035;28;20081;-74
2021/07/14 09:12:45;;;;;;;0.30;0.30;;;;;;;;;;5014247;28;20124;-74
2021/07/14 09:15:12;;;;;;;0.32;0.32;;;;;;;;;;4996696;28;20041;-73
2021/07/14 09:17:49;;;;;;;0.20;0.20;;;;;;;;;;4999208;28;20026;-74
2021/07/14 09:20:14;;;;;;;;;;;;;;;;;;5001112;28;20035;-74
2021/07/14 09:22:40;;;;;;;0.43;0.43;;;;;;;;;;4963766;28;19918;-74
2021/07/14 09:25:16;;;;;;;0.30;0.30;;;;;;;;;;4971872;28;20021;-72
2021/07/14 09:27:55;;;;;;;0.30;0.30;;;;;;;;;;4993573;28;20092;-74
2021/07/14 09:30:22;;;;;;;0.28;0.28;;;;;;;;;;4971278;28;20662;-73
2021/07/14 09:32:50;;;;;;;0.30;0.30;;;;;;;;;;4970521;28;20034;-74
2021/07/14 09:35:35;;;;;;;0.30;0.30;;;;;;;;;;4983641;28;20105;-74
2021/07/14 09:38:03;;;;;;;0.30;0.30;;;;;;;;;;4998653;28;20393;-72
2021/07/14 09:40:31;;;;;;;0.30;0.30;;;;;;;;;;4998247;28;20026;-74
2021/07/14 09:42:58;;;;;;;0.30;0.30;;;;;;;;;;4995613;28;20594;-74
2021/07/14 09:45:45;;;;;;;0.32;0.32;;;;;;;;;;4998707;28;20030;-73
2021/07/14 09:48:12;;;;;;;0.20;0.20;;;;;;;;;;4997673;28;20104;-74
2021/07/14 09:50:48;;;;;;;0.38;0.30;;;;;;;;;;5001861;28;20436;-72
2021/07/14 09:53:16;;;;;;;0.20;0.20;;;;;;;;;;5002625;28;20033;-72
2021/07/14 09:55:41;;;;;;;0.22;0.22;;;;;;;;;;4957556;28;20057;-72
2021/07/14 09:58:07;;;;;;;0.20;0.20;;;;;;;;;;4975726;28;20167;-73
2021/07/14 10:00:39;;;;;;;0.30;0.30;;;;;;;;;;4954406;28;20599;-72
2021/07/14 10:03:04;;;;;;;0.30;0.30;;;;;;;;;;4967244;28;20410;-71
2021/07/14 10:05:30;;;;;;;0.20;0.20;;;;;;;;;;4976051;28;20038;-80
2021/07/14 10:08:18;;;;;;;0.38;0.38;;;;;;;;;;4996924;28;20364;-80
2021/07/14 10:10:44;;;;;;;0.38;0.30;;;;;;;;;;4978704;28;20042;-80
2021/07/14 10:13:10;;;;;;;0.20;0.20;;;;;;;;;;5007663;28;20030;-80
2021/07/14 10:15:35;;;;;;;0.20;0.20;;;;;;;;;;5000999;28;20030;-79
2021/07/14 10:18:03;;;;;;;0.30;0.30;;;;;;;;;;4986281;28;20301;-80
2021/07/14 10:20:33;;;;;;;0.30;0.30;;;;;;;;;;4980811;28;20553;-78
2021/07/14 10:23:03;;;;;;;0.20;0.20;;;;;;;;;;5003090;28;20038;-79
2021/07/14 10:25:29;;;;;;;0.28;0.20;;;;;;;;;;5004950;28;20018;-80
2021/07/14 10:27:55;;;;;;;0.20;0.20;;;;;;;;;;4994179;28;20026;-79
2021/07/14 10:30:21;;;;;;;0.20;0.20;;;;;;;;;;4975517;28;20040;-79
2021/07/14 10:32:47;;;;;;;0.10;0.10;;;;;;;;;;4990358;28;20037;-80
2021/07/14 10:35:16;;;;;;;0.20;0.20;;;;;;;;;;4979850;28;20038;-81
2021/07/14 10:37:44;;;;;;;;;;;;;;;;;;4992264;28;20359;-80
2021/07/14 10:40:10;;;;;;;0.20;0.20;;;;;;;;;;4997392;28;19920;-80
2021/07/14 10:42:36;;;;;;;0.20;0.20;;;;;;;;;;4985595;28;21716;-80
2021/07/14 10:45:06;;;;;;;0.27;0.27;;;;;;;;;;4984978;28;20034;-80
2021/07/14 10:47:31;;;;;;;0.35;0.35;;;;;;;;;;4999986;28;20030;-78
2021/07/14 10:49:57;;;;;;;0.20;0.20;;;;;;;;;;4968713;28;20026;-73
2021/07/14 10:52:25;;;;;;;0.20;0.20;;;;;;;;;;4972054;28;20025;-76
2021/07/14 10:54:52;;;;;;;0.20;0.20;;;;;;;;;;4958812;28;20034;-71
2021/07/14 10:57:17;;;;;;;0.20;0.20;;;;;;;;;;4969233;28;20499;-72
2021/07/14 10:59:44;;;;;;;0.30;0.30;;;;;;;;;;4971445;28;20057;-71
2021/07/14 11:02:13;;;;;;;0.30;0.30;;;;;;;;;;4976429;28;20605;-70
2021/07/14 11:04:38;;;;;;;0.20;0.20;;;;;;;;;;4972415;28;20045;-71
2021/07/14 11:07:06;;;;;;;0.20;0.20;;;;;;;;;;4970538;28;20176;-71
2021/07/14 11:09:32;;;;;;;0.20;0.20;;;;;;;;;;4971107;28;21404;-71
2021/07/14 11:11:57;;;;;;;0.20;0.20;;;;;;;;;;4972084;28;20613;-70
2021/07/14 11:14:32;;;;;;;0.20;0.20;;;;;;;;;;4967791;28;20026;-73
2021/07/14 11:16:59;;;;;;;0.20;0.20;;;;;;;;;;4970602;28;20072;-72
2021/07/14 11:19:40;;;;;;;0.20;0.20;;;;;;;;;;4952564;28;20022;-73
2021/07/14 11:22:08;;;;;;;0.20;0.20;;;;;;;;;;4972587;28;20041;-73
2021/07/14 11:24:45;;;;;;;0.30;0.20;;;;;;;;;;4969204;28;20034;-74
2021/07/14 11:27:23;;;;;;;0.10;0.10;;;;;;;;;;4955612;28;20030;-73
2021/07/14 11:29:49;;;;;;;0.25;0.20;;;;;;;;;;4965121;28;20038;-74
2021/07/14 11:32:38;;;;;;;0.45;0.30;;;;;;;;;;4999087;28;21174;-74
2021/07/14 11:35:07;;;;;;;0.10;0.10;;;;;;;;;;4991340;28;20049;-73
2021/07/14 11:37:36;;;;;;;0.20;0.20;;;;;;;;;;4988510;28;20483;-75
2021/07/14 11:40:17;;;;;;;0.20;0.20;;;;;;;;;;5004635;28;20480;-73
2021/07/14 11:43:03;;;;;;;0.10;0.10;;;;;;;;;;5015075;28;20374;-80
2021/07/14 11:45:34;;;;;;;0.10;0.10;;;;;;;;;;5007275;28;20031;-78
2021/07/14 11:48:05;;;;;;;0.30;0.20;;;;;;;;;;5009149;28;20039;-78
2021/07/14 11:50:43;;;;;;;0.20;0.20;;;;;;;;;;4988639;28;20034;-80
2021/07/14 11:53:30;;;;;;;0.38;0.38;;;;;;;;;;4995002;28;20034;-78
2021/07/14 11:55:57;;;;;;;0.10;0.10;;;;;;;;;;5018409;28;20018;-79
2021/07/14 11:58:41;;;;;;;0.20;0.20;;;;;;;;;;5009521;28;20029;-80
2021/07/14 12:01:08;;;;;;;0.20;0.20;;;;;;;;;;4999292;28;20044;-78
2021/07/14 12:03:33;;;;;;;0.40;0.40;;;;;;;;;;5001406;28;20022;-78
2021/07/14 12:05:58;;;;;;;0.20;0.20;;;;;;;;;;4991216;28;20088;-78
2021/07/14 12:08:35;;;;;;;0.20;0.20;;;;;;;;;;5009559;28;20507;-79
2021/07/14 12:11:00;;;;;;;;;;;;;;;;;;5006501;28;20547;-78
2021/07/14 12:13:25;;;;;;;0.20;0.20;;;;;;;;;;4990929;28;19913;-79
2021/07/14 12:15:51;;;;;;;0.30;0.20;;;;;;;;;;5001658;28;20034;-79
2021/07/14 12:18:16;;;;;;;0.20;0.20;;;;;;;;;;5002136;28;20034;-78
2021/07/14 12:20:49;;;;;;;0.10;0.10;;;;;;;;;;5006343;28;20044;-77
2021/07/14 12:23:14;;;;;;;0.43;0.20;;;;;;;;;;4991701;28;20052;-78
2021/07/14 12:25:40;;;;;;;0.00;0.00;;;;;;;;;;4991260;28;20062;-75
2021/07/14 12:28:12;;;;;;;0.00;0.00;;;;;;;;;;4999353;28;20703;-75
2021/07/14 12:30:43;;;;;;;0.05;0.05;;;;;;;;;;5002946;28;20030;-75
2021/07/14 12:33:10;;;;;;;0.20;0.13;;;;;;;;;;4998355;28;20026;-75
2021/07/14 12:35:36;;;;;;;0.38;0.10;;;;;;;;;;5010530;28;20022;-75
2021/07/14 12:38:08;;;;;;;0.20;0.20;;;;;;;;;;4987651;28;20079;-74
2021/07/14 12:40:38;;;;;;;0.10;0.10;;;;;;;;;;5000280;28;20029;-75
2021/07/14 12:43:07;;;;;;;0.20;0.20;;;;;;;;;;5004656;28;20085;-75
2021/07/14 12:45:33;;;;;;;0.10;0.10;;;;;;;;;;5000030;28;20038;-75
2021/07/14 12:48:06;;;;;;;0.10;0.10;;;;;;;;;;5002620;28;20022;-75
2021/07/14 12:50:32;;;;;;;0.00;0.00;;;;;;;;;;4995263;28;20030;-74
2021/07/14 12:52:58;;;;;;;0.17;0.17;;;;;;;;;;4999385;28;20497;-74
2021/07/14 12:55:23;;;;;;;0.20;0.10;;;;;;;;;;4979020;28;20037;-75
2021/07/14 12:57:50;;;;;;;0.00;0.00;;;;;;;;;;4979793;28;20032;-74
2021/07/14 13:00:18;;;;;;;0.70;0.10;;;;;;;;;;4988710;28;20478;-75
2021/07/14 13:02:50;;;;;;;0.30;0.20;;;;;;;;;;4997740;28;20563;-75
2021/07/14 13:05:20;;;;;;;0.00;0.00;;;;;;;;;;4994141;28;20065;-75
2021/07/14 13:07:47;;;;;;;0.10;0.10;;;;;;;;;;5002721;28;20069;-78
2021/07/14 13:10:14;;;;;;;0.10;0.10;;;;;;;;;;5004758;28;20022;-78
2021/07/14 13:12:39;;;;;;;;;;;;;;;;;;4991621;28;20026;-76
2021/07/14 13:15:05;;;;;;;0.10;0.10;;;;;;;;;;4987196;28;20346;-76
2021/07/14 13:17:32;;;;;;;0.10;0.10;;;;;;;;;;5004210;28;20335;-76
2021/07/14 13:20:09;;;;;;;0.17;0.10;;;;;;;;;;4996463;28;20034;-75
2021/07/14 13:22:35;;;;;;;0.05;0.05;;;;;;;;;;4985132;28;20042;-77
2021/07/14 13:25:03;;;;;;;0.00;0.00;;;;;;;;;;4992387;28;20109;-76
2021/07/14 13:27:34;;;;;;;0.00;0.00;;;;;;;;;;4985903;28;20049;-77
2021/07/14 13:30:16;;;;;;;0.22;0.00;;;;;;;;;;5000844;28;20084;-78
2021/07/14 13:32:52;;;;;;;0.10;0.00;;;;;;;;;;5008188;28;20560;-75
2021/07/14 13:35:19;;;;;;;0.10;0.10;;;;;;;;;;4982648;28;20030;-76
2021/07/14 13:37:44;;;;;;;0.35;0.20;;;;;;;;;;5008180;28;20029;-76
2021/07/14 13:40:25;;;;;;;0.20;0.17;;;;;;;;;;5001814;28;20049;-78
2021/07/14 13:42:51;;;;;;;0.10;0.10;;;;;;;;;;5006227;28;20042;-76
2021/07/14 13:45:27;;;;;;;0.30;0.30;;;;;;;;;;4999938;28;20026;-77
2021/07/14 13:47:59;;;;;;;0.15;0.15;;;;;;;;;;4992089;28;20049;-76
2021/07/14 13:50:27;;;;;;;0.65;0.17;;;;;;;;;;5004720;28;20108;-77
2021/07/14 13:52:59;;;;;;;0.00;0.00;;;;;;;;;;4984421;28;20412;-76
2021/07/14 13:55:28;;;;;;;0.10;0.10;;;;;;;;;;4999062;28;20030;-77
2021/07/14 13:58:03;;;;;;;0.00;0.00;;;;;;;;;;5009474;28;20122;-77
2021/07/14 14:00:29;;;;;;;0.30;0.30;;;;;;;;;;5009492;28;20113;-77
2021/07/14 14:02:58;;;;;;;0.10;0.10;;;;;;;;;;4993516;28;20161;-77
2021/07/14 14:05:24;;;;;;;0.10;0.10;;;;;;;;;;5000258;28;20037;-78
2021/07/14 14:07:49;;;;;;;0.10;0.10;;;;;;;;;;5002828;28;20036;-77
2021/07/14 14:10:20;;;;;;;0.10;0.00;;;;;;;;;;5009179;28;20030;-77
2021/07/14 14:12:46;;;;;;;0.05;0.00;;;;;;;;;;5003611;28;20361;-77
2021/07/14 14:15:16;;;;;;;0.10;0.10;;;;;;;;;;5009836;28;20049;-77
2021/07/14 14:17:42;;;;;;;0.00;0.00;;;;;;;;;;4984821;28;20045;-77
2021/07/14 14:20:07;;;;;;;;;;;;;;;;;;4992391;28;20428;-77
2021/07/14 14:22:36;;;;;;;0.00;0.00;;;;;;;;;;5004152;28;19917;-77
2021/07/14 14:25:07;;;;;;;0.00;0.00;;;;;;;;;;5001967;28;20038;-77
2021/07/14 14:27:45;;;;;;;0.00;0.00;;;;;;;;;;5001362;28;20101;-77
2021/07/14 14:30:12;;;;;;;0.03;0.03;;;;;;;;;;4981073;28;20361;-77
2021/07/14 14:32:37;;;;;;;0.57;0.05;;;;;;;;;;5007367;28;20030;-76
2021/07/14 14:35:03;;;;;;;0.17;0.10;;;;;;;;;;4989861;28;20030;-77
2021/07/14 14:37:28;;;;;;;0.00;0.00;;;;;;;;;;5002193;28;20108;-77
2021/07/14 14:39:54;;;;;;;0.00;0.00;;;;;;;;;;5003449;28;20030;-77
2021/07/14 14:42:19;;;;;;;0.00;0.00;;;;;;;;;;4998341;28;20034;-77
2021/07/14 14:44:44;;;;;;;0.10;0.03;;;;;;;;;;5004575;28;20047;-77
2021/07/14 14:47:10;;;;;;;0.10;0.10;;;;;;;;;;4999284;28;20419;-77
2021/07/14 14:49:35;;;;;;;0.10;0.00;;;;;;;;;;4997298;28;20037;-77
2021/07/14 14:52:03;;;;;;;0.00;0.00;;;;;;;;;;5009105;28;20049;-77
2021/07/14 14:54:28;;;;;;;0.00;0.00;;;;;;;;;;5010044;28;20030;-77